M I D A S
Marine Information and Data Acquisition System
Tripno 582 of the Zeeleeuw from 2003-09-03 06:16:07 to 2003-09-03 13:32:51
Back to CruiseResearch ActivitiesStationsMapUnderway DataData graphs

EquipmentUnitsComment
TimeDGPSUTC
LatitudeDGPSDM.mWGS84
LongitudeDGPSDM.mWGS84
HeadingGyrodeg 
SOGDGPSknotsSpeed over ground
COGDGPSdegCourse over ground
DepthEcho soundermeters200 kHz
Missing or incorrect values are displayed as -999
Navigation data collected by the RV Zeeleeuw from 2003-09-03 06:16:07 to 2003-09-03 13:32:51
                                                                                    Next 1000 lines
Time Latitude Longitude Heading SOG COG Depth
2003-09-03 06:16:13 51°13.79 2°55.68 327.6 6.4 324 13.1
2003-09-03 06:16:19 51°13.8 2°55.67 329 6.5 326 13
2003-09-03 06:16:23 51°13.8 2°55.66 330.7 6.6 328 13.2
2003-09-03 06:16:29 51°13.81 2°55.65 332.9 6.7 329 13.2
2003-09-03 06:16:33 51°13.82 2°55.65 334.3 6.8 331 13.5
2003-09-03 06:16:39 51°13.83 2°55.64 336.2 6.9 332 13.4
2003-09-03 06:16:43 51°13.83 2°55.63 337.8 7 333 13
2003-09-03 06:16:49 51°13.85 2°55.62 338.6 7.1 334 13.2
2003-09-03 06:16:53 51°13.85 2°55.62 338.9 7.2 334 12.9
2003-09-03 06:16:59 51°13.86 2°55.61 339.2 7.3 334 13
2003-09-03 06:17:03 51°13.87 2°55.6 339.4 7.3 334 13
2003-09-03 06:17:09 51°13.88 2°55.59 339.5 7.4 334 13.1
2003-09-03 06:17:15 51°13.89 2°55.59 339.7 7.4 335 13.1
2003-09-03 06:17:19 51°13.9 2°55.58 340.4 7.5 335 13.1
2003-09-03 06:17:23 51°13.91 2°55.58 341.8 7.5 337 13.2
2003-09-03 06:17:29 51°13.92 2°55.57 342.4 7.6 337 13.3
2003-09-03 06:17:41 51°13.94 2°55.55 342.5 7.6 337 13.4
2003-09-03 06:17:45 51°13.95 2°55.55 342.3 7.6 337 13.3
2003-09-03 06:17:51 51°13.96 2°55.54 342 7.7 337 13.4
2003-09-03 06:17:55 51°13.97 2°55.53 342.3 7.7 338 13.4
2003-09-03 06:18:01 51°13.98 2°55.53 342.5 7.6 337 13.2
2003-09-03 06:18:05 51°13.99 2°55.52 342.4 7.7 336 13.2
2003-09-03 06:18:11 51°14 2°55.51 341.5 7.7 335 13
2003-09-03 06:18:15 51°14.01 2°55.51 341.1 7.7 336 13.1
2003-09-03 06:18:21 51°14.02 2°55.5 341.1 7.7 336 13.1
2003-09-03 06:18:25 51°14.03 2°55.49 341.5 7.6 336 13
2003-09-03 06:18:31 51°14.04 2°55.49 341.7 7.6 336 13
2003-09-03 06:18:35 51°14.05 2°55.48 341.7 7.7 336 12.9
2003-09-03 06:18:41 51°14.06 2°55.47 341.6 7.7 336 12.9
2003-09-03 06:18:45 51°14.07 2°55.47 341.5 7.7 336 13
2003-09-03 06:18:51 51°14.08 2°55.46 341.6 7.7 336 13
2003-09-03 06:18:55 51°14.09 2°55.45 341.7 7.7 336 12.9
2003-09-03 06:19:01 51°14.1 2°55.44 341.6 7.7 336 13
2003-09-03 06:19:05 51°14.11 2°55.44 341.1 7.9 335 13.1
2003-09-03 06:19:11 51°14.12 2°55.43 340.6 8.1 334 12.9
2003-09-03 06:19:15 51°14.13 2°55.42 339.5 8.3 334 13
2003-09-03 06:19:19 51°14.13 2°55.42 338.8 8.5 333 13.1
2003-09-03 06:19:25 51°14.15 2°55.4 338.2 8.6 332 13.2
2003-09-03 06:19:31 51°14.16 2°55.39 337.5 8.9 331 13.2
2003-09-03 06:19:35 51°14.17 2°55.39 336 9.2 329 13.2
2003-09-03 06:19:41 51°14.18 2°55.37 333.8 9.6 327 13.4
2003-09-03 06:19:45 51°14.19 2°55.36 331.9 9.8 325 13.4
2003-09-03 06:19:51 51°14.21 2°55.35 330.2 10.1 323 13.3
2003-09-03 06:19:55 51°14.21 2°55.33 328.8 10.3 322 13.3
2003-09-03 06:20:01 51°14.23 2°55.32 327.3 10.6 320 13.2
2003-09-03 06:20:05 51°14.24 2°55.3 325.9 10.7 318 13.2
2003-09-03 06:20:11 51°14.25 2°55.28 324.4 10.8 317 13.1
2003-09-03 06:20:15 51°14.26 2°55.27 322.4 10.9 315 13.4
2003-09-03 06:20:21 51°14.27 2°55.25 320.3 11 313 13.6
2003-09-03 06:20:25 51°14.28 2°55.24 318.5 11.1 311 13.5
2003-09-03 06:20:31 51°14.29 2°55.21 317.4 11.2 311 13.5
2003-09-03 06:20:35 51°14.3 2°55.2 316.2 11.2 310 13.3
2003-09-03 06:20:39 51°14.31 2°55.18 315 11.3 309 13.5
2003-09-03 06:20:45 51°14.32 2°55.16 314.8 11.3 309 13.4
2003-09-03 06:20:51 51°14.33 2°55.14 314.4 11.4 308 13.4
2003-09-03 06:20:55 51°14.34 2°55.12 313.8 11.4 308 12.7
2003-09-03 06:21:01 51°14.35 2°55.1 313.4 11.4 307 12.6
2003-09-03 06:21:05 51°14.36 2°55.08 312.8 11.4 307 13
2003-09-03 06:21:11 51°14.37 2°55.06 312.6 11.4 307 13.2
2003-09-03 06:21:15 51°14.38 2°55.04 313 11.5 308 13.5
2003-09-03 06:21:21 51°14.39 2°55.02 314.5 11.4 312 13
2003-09-03 06:21:25 51°14.4 2°55 317 11.3 316 12.9
2003-09-03 06:21:31 51°14.41 2°54.99 321 11.3 323 13
2003-09-03 06:21:35 51°14.42 2°54.98 325.8 11.3 327 12.7
2003-09-03 06:21:41 51°14.44 2°54.96 329.9 11.2 331 12.4
2003-09-03 06:21:45 51°14.45 2°54.95 332.5 11.3 332 12.3
2003-09-03 06:21:51 51°14.47 2°54.94 333.2 11.3 333 12.3
2003-09-03 06:21:55 51°14.48 2°54.93 333.4 11.4 333 12.1
2003-09-03 06:22:01 51°14.5 2°54.92 333.6 11.4 334 12
2003-09-03 06:22:05 51°14.51 2°54.91 334.1 11.7 334 11.9
2003-09-03 06:22:11 51°14.53 2°54.89 334.5 11.9 334 11.9
2003-09-03 06:22:15 51°14.54 2°54.88 334.3 12.1 334 11.9
2003-09-03 06:22:21 51°14.56 2°54.87 333.8 12.2 334 12
2003-09-03 06:22:25 51°14.57 2°54.86 333.7 12.3 333 11.8
2003-09-03 06:22:31 51°14.59 2°54.84 333.1 12.4 332 11.8
2003-09-03 06:22:35 51°14.6 2°54.83 332.4 12.4 332 11.9
2003-09-03 06:22:41 51°14.62 2°54.82 332.3 12.5 332 11.8
2003-09-03 06:22:45 51°14.63 2°54.81 332.2 12.5 331 11.8
2003-09-03 06:22:51 51°14.65 2°54.79 331.6 12.5 331 11.6
2003-09-03 06:22:55 51°14.66 2°54.78 331.2 12.5 330 11.6
2003-09-03 06:23:01 51°14.68 2°54.76 330.9 12.5 330 11.7
2003-09-03 06:23:05 51°14.69 2°54.75 330.9 12.6 330 11.7
2003-09-03 06:23:11 51°14.71 2°54.74 331.2 12.5 330 11.7
2003-09-03 06:23:15 51°14.72 2°54.72 331.6 12.5 331 11.5
2003-09-03 06:23:21 51°14.74 2°54.71 332.2 12.6 332 11.8
2003-09-03 06:23:25 51°14.75 2°54.7 332.8 12.7 332 11.5
2003-09-03 06:23:31 51°14.77 2°54.68 333.5 12.7 333 11.6
2003-09-03 06:23:35 51°14.78 2°54.67 334.1 12.7 333 11.5
2003-09-03 06:23:41 51°14.8 2°54.66 334.5 12.7 334 11.6
2003-09-03 06:23:45 51°14.81 2°54.65 334.5 12.7 333 11.4
2003-09-03 06:23:51 51°14.83 2°54.63 334 12.6 332 11.4
2003-09-03 06:23:55 51°14.85 2°54.62 332.9 12.6 330 11.6
2003-09-03 06:24:01 51°14.86 2°54.6 331.7 12.6 330 11.4
2003-09-03 06:24:05 51°14.88 2°54.59 331.6 12.6 331 11.5
2003-09-03 06:24:11 51°14.89 2°54.58 331.8 12.7 331 11.5
2003-09-03 06:24:15 51°14.91 2°54.57 332.7 12.6 332 11.3
2003-09-03 06:24:21 51°14.92 2°54.55 332.9 12.7 331 11.3
2003-09-03 06:24:25 51°14.94 2°54.54 332.8 12.7 331 11.2
2003-09-03 06:24:31 51°14.96 2°54.52 332.7 12.7 331 11.3
2003-09-03 06:24:35 51°14.97 2°54.51 332.7 12.6 331 10.8
2003-09-03 06:24:41 51°14.99 2°54.5 332.8 12.7 332 11
2003-09-03 06:24:45 51°15 2°54.49 333.1 12.7 332 10.9
2003-09-03 06:24:51 51°15.02 2°54.47 333.3 12.7 332 10.8
2003-09-03 06:24:55 51°15.03 2°54.46 333.2 12.6 331 10.8
2003-09-03 06:25:01 51°15.05 2°54.44 332.8 12.6 331 10.8
2003-09-03 06:25:05 51°15.06 2°54.43 332.7 12.6 331 10.8
2003-09-03 06:25:11 51°15.08 2°54.41 332.7 12.7 330 10.8
2003-09-03 06:25:15 51°15.09 2°54.4 332.4 12.7 330 10.8
2003-09-03 06:25:19 51°15.1 2°54.39 332.1 12.7 330 10.8
2003-09-03 06:25:25 51°15.12 2°54.38 331.9 12.7 330 10.8
2003-09-03 06:25:31 51°15.14 2°54.36 332.2 12.7 331 10.8
2003-09-03 06:25:35 51°15.15 2°54.35 332.6 12.8 331 10.9
2003-09-03 06:25:41 51°15.17 2°54.33 333.2 12.7 332 10.8
2003-09-03 06:25:45 51°15.18 2°54.32 333.6 12.7 332 10.9
2003-09-03 06:25:51 51°15.2 2°54.31 333.8 12.7 332 11
2003-09-03 06:25:55 51°15.21 2°54.3 333.9 12.7 332 11.2
2003-09-03 06:26:01 51°15.23 2°54.28 334.3 12.8 333 11.2
2003-09-03 06:26:05 51°15.24 2°54.27 334.4 12.8 333 11.3
2003-09-03 06:26:11 51°15.26 2°54.25 334.5 12.7 332 11.2
2003-09-03 06:26:15 51°15.28 2°54.24 334.4 12.7 332 11.2
2003-09-03 06:26:21 51°15.29 2°54.23 333.8 12.9 331 11.4
2003-09-03 06:26:25 51°15.31 2°54.22 333.1 13.1 331 11.3
2003-09-03 06:26:31 51°15.33 2°54.2 333.1 13.3 331 11.5
2003-09-03 06:26:35 51°15.34 2°54.19 332.8 13.4 331 11.4
2003-09-03 06:26:41 51°15.36 2°54.17 332.9 13.5 331 11.7
2003-09-03 06:26:45 51°15.37 2°54.16 333.1 13.5 332 11.5
2003-09-03 06:26:51 51°15.39 2°54.14 333.1 13.6 330 11.8
2003-09-03 06:26:55 51°15.41 2°54.13 332.7 13.7 330 11.8
2003-09-03 06:27:01 51°15.43 2°54.11 332.3 13.7 330 11.8
2003-09-03 06:27:05 51°15.44 2°54.1 332.1 13.8 330 12
2003-09-03 06:27:11 51°15.46 2°54.08 332.1 13.7 330 11.8
2003-09-03 06:27:15 51°15.47 2°54.07 332.5 13.7 331 12.1
2003-09-03 06:27:21 51°15.49 2°54.05 333.1 13.9 331 12.2
2003-09-03 06:27:27 51°15.51 2°54.03 333.2 13.9 331 12.2
2003-09-03 06:27:31 51°15.53 2°54.02 333.2 13.8 332 12.2
2003-09-03 06:27:35 51°15.54 2°54.01 333.5 13.9 332 12.2
2003-09-03 06:27:41 51°15.56 2°53.99 333.5 13.9 332 12.3
2003-09-03 06:27:45 51°15.57 2°53.98 333.7 13.9 332 12.5
2003-09-03 06:27:51 51°15.59 2°53.96 333.5 13.9 332 12.4
2003-09-03 06:27:55 51°15.61 2°53.95 333.2 13.9 331 12.4
2003-09-03 06:28:01 51°15.63 2°53.93 332.8 14 331 12.7
2003-09-03 06:28:05 51°15.64 2°53.92 332.5 13.9 331 12.7
2003-09-03 06:28:11 51°15.66 2°53.9 332.5 13.9 332 12.7
2003-09-03 06:28:15 51°15.67 2°53.89 333.1 14 333 12.9
2003-09-03 06:28:21 51°15.7 2°53.88 334.8 14.1 335 12.9
2003-09-03 06:28:25 51°15.71 2°53.87 336 14.1 336 12.9
2003-09-03 06:28:31 51°15.73 2°53.85 336.8 14.1 336 13
2003-09-03 06:28:35 51°15.75 2°53.84 337.4 14 336 13.1
2003-09-03 06:28:41 51°15.77 2°53.83 337.5 14.1 336 13.2
2003-09-03 06:28:45 51°15.78 2°53.82 337.5 14 336 13.1
2003-09-03 06:28:51 51°15.8 2°53.8 337.7 14.1 336 13.2
2003-09-03 06:28:55 51°15.82 2°53.79 337.7 14 336 13.3
2003-09-03 06:29:01 51°15.84 2°53.78 337.7 14 336 13.2
2003-09-03 06:29:05 51°15.85 2°53.77 337.7 14 336 13.5
2003-09-03 06:29:11 51°15.87 2°53.75 337.6 14 336 13.5
2003-09-03 06:29:15 51°15.89 2°53.74 337.3 14.1 336 13.6
2003-09-03 06:29:21 51°15.91 2°53.73 337.5 14 337 13.5
2003-09-03 06:29:25 51°15.92 2°53.72 337.6 14 336 13.6
2003-09-03 06:29:31 51°15.95 2°53.7 337.6 14 336 13.6
2003-09-03 06:29:35 51°15.96 2°53.69 337.3 14.1 336 13.7
2003-09-03 06:29:41 51°15.98 2°53.68 336.7 14.1 336 13.7
2003-09-03 06:29:45 51°16 2°53.66 336.5 14.1 335 13.8
2003-09-03 06:29:51 51°16.02 2°53.65 336.3 14 335 13.9
2003-09-03 06:29:55 51°16.03 2°53.64 335.9 14 334 13.8
2003-09-03 06:30:01 51°16.05 2°53.62 335.6 14 334 13.9
2003-09-03 06:30:05 51°16.07 2°53.61 335.3 14 335 13.9
2003-09-03 06:30:11 51°16.09 2°53.6 335.9 14 336 14
2003-09-03 06:30:15 51°16.1 2°53.59 336.7 14.1 336 14.1
2003-09-03 06:30:21 51°16.12 2°53.57 336.8 14 335 13.9
2003-09-03 06:30:25 51°16.14 2°53.56 336.5 14.1 335 14
2003-09-03 06:30:31 51°16.16 2°53.54 336 13.9 335 14.1
2003-09-03 06:30:35 51°16.17 2°53.53 336 13.9 335 14
2003-09-03 06:30:41 51°16.19 2°53.52 335.6 13.9 335 14
2003-09-03 06:30:45 51°16.21 2°53.51 335.9 13.9 335 14.1
2003-09-03 06:30:51 51°16.23 2°53.49 336 14 335 13.9
2003-09-03 06:30:55 51°16.24 2°53.48 336.5 13.9 336 14.3
2003-09-03 06:31:01 51°16.26 2°53.47 336.5 13.9 335 14.3
2003-09-03 06:31:05 51°16.28 2°53.46 336.2 13.9 335 14.3
2003-09-03 06:31:11 51°16.3 2°53.44 336.1 14 335 14.4
2003-09-03 06:31:15 51°16.31 2°53.43 336.1 13.9 335 14.3
2003-09-03 06:31:21 51°16.33 2°53.41 336 14 335 14.5
2003-09-03 06:31:25 51°16.35 2°53.4 336 14 335 14.3
2003-09-03 06:31:31 51°16.37 2°53.39 335.9 13.9 335 14.2
2003-09-03 06:31:35 51°16.38 2°53.38 336.1 13.9 335 14.5
2003-09-03 06:31:41 51°16.4 2°53.36 336.4 13.9 335 14.4
2003-09-03 06:31:45 51°16.42 2°53.35 336.4 13.9 336 14.2
2003-09-03 06:31:51 51°16.44 2°53.34 336.7 13.9 336 14.3
2003-09-03 06:31:55 51°16.45 2°53.33 336.7 14 335 14.3
2003-09-03 06:32:01 51°16.47 2°53.31 336.6 13.9 335 14.3
2003-09-03 06:32:05 51°16.49 2°53.3 336.1 13.9 334 14.4
2003-09-03 06:32:11 51°16.51 2°53.28 335.3 13.9 333 14.2
2003-09-03 06:32:15 51°16.52 2°53.27 335.1 13.9 334 14.1
2003-09-03 06:32:21 51°16.54 2°53.26 335.7 14 335 14.2
2003-09-03 06:32:33 51°16.58 2°53.22 336.7 13.9 335 14
2003-09-03 06:32:35 51°16.59 2°53.22 336.4 13.8 334 13.8
2003-09-03 06:32:43 51°16.62 2°53.2 335 13.9 333 13.9
2003-09-03 06:32:47 51°16.63 2°53.19 334.1 13.9 332 13.7
2003-09-03 06:32:53 51°16.65 2°53.17 333.2 14 332 13.9
2003-09-03 06:32:57 51°16.67 2°53.16 333.2 13.7 332 13.8
2003-09-03 06:33:03 51°16.69 2°53.14 333.1 13.7 332 13.3
2003-09-03 06:33:07 51°16.7 2°53.13 332.9 13.8 331 13.5
2003-09-03 06:33:11 51°16.71 2°53.12 332.6 13.8 331 13.3
2003-09-03 06:33:17 51°16.73 2°53.1 332.6 13.8 331 13.3
2003-09-03 06:33:23 51°16.75 2°53.08 332.7 13.9 331 13.1
2003-09-03 06:33:27 51°16.77 2°53.07 333 13.9 331 13.3
2003-09-03 06:33:33 51°16.79 2°53.05 333.1 13.9 331 12.9
2003-09-03 06:33:37 51°16.8 2°53.04 332.7 13.9 331 12.6
2003-09-03 06:33:43 51°16.82 2°53.02 332.8 13.8 331 11.8
2003-09-03 06:33:47 51°16.83 2°53.01 333.3 13.8 332 11.1
2003-09-03 06:33:51 51°16.85 2°53 333.4 13.7 331 10.7
2003-09-03 06:33:57 51°16.87 2°52.98 333.1 13.7 331 10.6
2003-09-03 06:34:03 51°16.89 2°52.96 332.6 13.7 331 10.7
2003-09-03 06:34:07 51°16.9 2°52.95 332.5 13.7 331 10.5
2003-09-03 06:34:13 51°16.92 2°52.93 332.7 13.8 330 10.4
2003-09-03 06:34:15 51°16.93 2°52.93 331.6 13.8 328 10.7
2003-09-03 06:34:23 51°16.95 2°52.9 329.6 13.8 327 10.7
2003-09-03 06:34:27 51°16.97 2°52.89 328.5 13.8 325 11.1
2003-09-03 06:34:33 51°16.98 2°52.87 327.2 13.9 324 11.1
2003-09-03 06:34:37 51°17 2°52.85 326 13.9 323 11.5
2003-09-03 06:34:43 51°17.02 2°52.83 325.4 14 323 11.6
2003-09-03 06:34:47 51°17.03 2°52.81 325.2 14 323 11.8
2003-09-03 06:34:53 51°17.05 2°52.79 325 13.9 323 11.9
2003-09-03 06:34:57 51°17.06 2°52.78 325.1 14 324 11.9
2003-09-03 06:35:03 51°17.08 2°52.76 325.9 14 324 12.3
2003-09-03 06:35:07 51°17.09 2°52.74 326 14 324 12
2003-09-03 06:35:13 51°17.11 2°52.72 326 14 324 12.2
2003-09-03 06:35:17 51°17.12 2°52.7 325.8 14 324 11.6
2003-09-03 06:35:23 51°17.14 2°52.68 325.7 13.9 324 11.3
2003-09-03 06:35:33 51°17.17 2°52.65 325.5 13.9 324 11.7
2003-09-03 06:35:35 51°17.18 2°52.64 325.8 13.9 324 11.8
2003-09-03 06:35:43 51°17.2 2°52.61 325.3 13.9 323 11.5
2003-09-03 06:35:47 51°17.22 2°52.59 325 13.8 322 11.9
2003-09-03 06:35:53 51°17.23 2°52.57 324.4 13.9 322 12
2003-09-03 06:35:57 51°17.25 2°52.56 324.3 13.9 322 11.6
2003-09-03 06:36:03 51°17.26 2°52.53 324.1 13.9 322 11.7
2003-09-03 06:36:07 51°17.28 2°52.52 323.9 13.9 322 11.9
2003-09-03 06:36:13 51°17.29 2°52.5 323.9 14 322 12.1
2003-09-03 06:36:17 51°17.31 2°52.48 323.9 13.9 322 11.9
2003-09-03 06:36:23 51°17.32 2°52.46 324.2 13.9 322 12.1
2003-09-03 06:36:27 51°17.34 2°52.44 324.3 13.9 323 12.3
2003-09-03 06:36:33 51°17.36 2°52.42 324.5 13.9 323 12.2
2003-09-03 06:36:37 51°17.37 2°52.41 324.8 13.9 322 12.6
2003-09-03 06:36:43 51°17.39 2°52.38 324.6 13.9 322 12.1
2003-09-03 06:36:47 51°17.4 2°52.37 324.2 13.9 322 12.2
2003-09-03 06:36:53 51°17.42 2°52.35 323.7 13.9 322 12.4
2003-09-03 06:36:57 51°17.43 2°52.33 323.7 13.9 322 12.5
2003-09-03 06:37:03 51°17.45 2°52.31 323.7 13.9 322 12.1
2003-09-03 06:37:07 51°17.46 2°52.29 323.5 13.9 321 12.2
2003-09-03 06:37:13 51°17.48 2°52.27 323.6 14 321 12.6
2003-09-03 06:37:19 51°17.49 2°52.25 323.5 13.9 321 12.5
2003-09-03 06:37:23 51°17.51 2°52.23 323.4 13.9 321 12.4
2003-09-03 06:37:27 51°17.52 2°52.22 323.1 13.9 321 12.1
2003-09-03 06:37:33 51°17.54 2°52.19 323.4 13.9 322 12.5
2003-09-03 06:37:37 51°17.55 2°52.18 323.8 13.9 322 12.6
2003-09-03 06:37:43 51°17.57 2°52.16 324.2 13.9 322 12.6
2003-09-03 06:37:47 51°17.58 2°52.14 324.3 13.9 322 12.4
2003-09-03 06:37:53 51°17.6 2°52.12 324.1 14 321 12.4
2003-09-03 06:37:57 51°17.61 2°52.1 323.7 13.9 322 12.6
2003-09-03 06:38:03 51°17.63 2°52.08 323.8 13.9 322 12.3
2003-09-03 06:38:07 51°17.64 2°52.06 323.8 13.9 322 12.5
2003-09-03 06:38:13 51°17.66 2°52.04 323.9 14 322 12.3
2003-09-03 06:38:17 51°17.67 2°52.03 324.2 14 322 12.5
2003-09-03 06:38:23 51°17.69 2°52 324 14 322 12.4
2003-09-03 06:38:27 51°17.7 2°51.99 324.1 14 323 12.4
2003-09-03 06:38:33 51°17.72 2°51.97 324.1 13.9 322 12.3
2003-09-03 06:38:37 51°17.73 2°51.95 324.2 14 323 12.4
2003-09-03 06:38:43 51°17.75 2°51.93 324.2 14 323 12.5
2003-09-03 06:38:47 51°17.76 2°51.91 324.4 14 323 12.2
2003-09-03 06:38:53 51°17.78 2°51.89 324.6 14 323 12.3
2003-09-03 06:38:57 51°17.8 2°51.88 324.4 13.9 323 12.2
2003-09-03 06:39:03 51°17.81 2°51.85 324.4 13.9 323 12
2003-09-03 06:39:07 51°17.83 2°51.84 324.2 13.9 322 12.3
2003-09-03 06:39:13 51°17.84 2°51.82 324.1 13.9 322 11.9
2003-09-03 06:39:17 51°17.86 2°51.8 323.9 13.9 322 12
2003-09-03 06:39:23 51°17.87 2°51.78 323.7 14 322 12.3
2003-09-03 06:39:27 51°17.89 2°51.76 324 14 322 12.4
2003-09-03 06:39:33 51°17.91 2°51.74 324.3 14 323 12.4
2003-09-03 06:39:37 51°17.92 2°51.72 324.4 14 323 12.3
2003-09-03 06:39:43 51°17.94 2°51.7 324.4 14 323 12.4
2003-09-03 06:39:47 51°17.95 2°51.69 324.2 14 322 12.2
2003-09-03 06:39:53 51°17.97 2°51.66 323.9 14 322 12.4
2003-09-03 06:39:57 51°17.98 2°51.65 324 14 322 12.4
2003-09-03 06:40:03 51°18 2°51.63 323.9 14 323 12.5
2003-09-03 06:40:07 51°18.01 2°51.61 324 14 322 12.5
2003-09-03 06:40:13 51°18.03 2°51.59 324 14 323 12.9
2003-09-03 06:40:17 51°18.04 2°51.57 324.2 14 323 12.6
2003-09-03 06:40:21 51°18.05 2°51.56 324.4 14 323 13
2003-09-03 06:40:27 51°18.07 2°51.54 324.7 13.9 323 13
2003-09-03 06:40:33 51°18.09 2°51.51 324.7 14 323 13.4
2003-09-03 06:40:37 51°18.1 2°51.5 324.5 13.9 323 13.3
2003-09-03 06:40:43 51°18.12 2°51.48 324 13.9 322 13.2
2003-09-03 06:40:47 51°18.13 2°51.46 323.6 13.9 322 13.5
2003-09-03 06:40:53 51°18.15 2°51.44 323.7 14 323 13.5
2003-09-03 06:40:57 51°18.16 2°51.42 324.2 14 323 13.7
2003-09-03 06:41:03 51°18.18 2°51.4 324.6 13.9 324 13.8
2003-09-03 06:41:07 51°18.2 2°51.39 325.1 14 324 13.8
2003-09-03 06:41:13 51°18.21 2°51.37 325.2 14 324 13.9
2003-09-03 06:41:17 51°18.23 2°51.35 325.3 14 324 14.1
2003-09-03 06:41:23 51°18.25 2°51.33 325 14 323 14.2
2003-09-03 06:41:27 51°18.26 2°51.31 324.4 14 323 14.4
2003-09-03 06:41:33 51°18.28 2°51.29 324 14 323 14.2
2003-09-03 06:41:35 51°18.28 2°51.28 323.5 14 322 14.7
2003-09-03 06:41:43 51°18.31 2°51.25 323.2 14 322 14.8
2003-09-03 06:41:47 51°18.32 2°51.24 323.5 14 322 14.9
2003-09-03 06:41:53 51°18.34 2°51.22 324 14 323 15
2003-09-03 06:41:57 51°18.35 2°51.2 324.1 14 323 15
2003-09-03 06:42:03 51°18.37 2°51.18 324.3 13.9 323 15
2003-09-03 06:42:07 51°18.38 2°51.16 324.3 13.9 323 15.2
2003-09-03 06:42:13 51°18.4 2°51.14 324.1 14 323 15.4
2003-09-03 06:42:17 51°18.41 2°51.13 323.9 14 323 15.3
2003-09-03 06:42:23 51°18.43 2°51.1 323.9 14 323 15.3
2003-09-03 06:42:27 51°18.44 2°51.09 324.2 13.9 323 15.5
2003-09-03 06:42:33 51°18.46 2°51.07 324.1 13.9 323 15.4
2003-09-03 06:42:37 51°18.47 2°51.05 324 13.9 323 15.5
2003-09-03 06:42:43 51°18.49 2°51.03 324 14 323 15.8
2003-09-03 06:42:47 51°18.51 2°51.01 324.1 14.1 323 15.7
2003-09-03 06:42:53 51°18.52 2°50.99 324 14 323 15.8
2003-09-03 06:42:57 51°18.54 2°50.98 324 14 323 15.6
2003-09-03 06:43:03 51°18.55 2°50.96 324.1 13.9 323 15.8
2003-09-03 06:43:07 51°18.57 2°50.94 324.2 13.9 323 15.6
2003-09-03 06:43:13 51°18.59 2°50.92 324 13.9 323 15.8
2003-09-03 06:43:17 51°18.6 2°50.9 323.8 13.9 322 15.9
2003-09-03 06:43:23 51°18.62 2°50.88 323.8 14 323 16.3
2003-09-03 06:43:27 51°18.63 2°50.87 324.2 13.9 323 16.2
2003-09-03 06:43:33 51°18.65 2°50.84 324.4 13.9 323 16.2
2003-09-03 06:43:37 51°18.66 2°50.83 324.2 14 323 16.5
2003-09-03 06:43:43 51°18.68 2°50.81 324.2 14 323 16.5
2003-09-03 06:43:47 51°18.69 2°50.79 324 14 323 16.4
2003-09-03 06:43:53 51°18.71 2°50.77 323.9 14 323 16.3
2003-09-03 06:43:57 51°18.72 2°50.75 324.2 14 323 16.4
2003-09-03 06:44:03 51°18.74 2°50.73 324.3 13.9 323 16.5
2003-09-03 06:44:07 51°18.75 2°50.72 324.4 13.9 323 16.2
2003-09-03 06:44:13 51°18.77 2°50.69 324.5 13.9 323 16.3
2003-09-03 06:44:15 51°18.78 2°50.69 324.4 13.9 323 16.5
2003-09-03 06:44:23 51°18.8 2°50.66 324.2 13.9 322 16.5
2003-09-03 06:44:27 51°18.81 2°50.64 324.1 13.9 322 16.4
2003-09-03 06:44:31 51°18.82 2°50.63 324 13.9 322 16.7
2003-09-03 06:44:37 51°18.84 2°50.6 324 13.9 322 16.4
2003-09-03 06:44:43 51°18.86 2°50.58 323.9 13.9 322 16.5
2003-09-03 06:44:47 51°18.87 2°50.57 324 14 322 16.4
2003-09-03 06:44:53 51°18.89 2°50.54 323.9 13.9 321 16.5
2003-09-03 06:44:57 51°18.9 2°50.53 324 13.9 322 16.5
2003-09-03 06:45:03 51°18.92 2°50.51 324.3 14 322 16
2003-09-03 06:45:07 51°18.93 2°50.49 324.3 13.9 322 15.8
2003-09-03 06:45:13 51°18.95 2°50.47 324.3 13.8 322 16
2003-09-03 06:45:17 51°18.96 2°50.45 324.3 13.9 322 15.9
2003-09-03 06:45:23 51°18.98 2°50.43 324.1 13.8 322 15.6
2003-09-03 06:45:27 51°19 2°50.42 324.3 13.9 322 15.8
2003-09-03 06:45:33 51°19.01 2°50.39 324.3 13.8 322 15.4
2003-09-03 06:45:37 51°19.03 2°50.38 324.4 13.8 322 15.2
2003-09-03 06:45:43 51°19.04 2°50.35 324.5 13.9 322 15
2003-09-03 06:45:47 51°19.06 2°50.34 324.4 13.9 322 15.1
2003-09-03 06:45:53 51°19.07 2°50.32 324.2 13.9 322 14.9
2003-09-03 06:45:57 51°19.09 2°50.3 324.1 13.8 322 14.8
2003-09-03 06:46:03 51°19.1 2°50.28 324.2 13.9 322 14.7
2003-09-03 06:46:07 51°19.12 2°50.26 324.4 13.9 322 14.4
2003-09-03 06:46:13 51°19.13 2°50.24 324.4 13.9 322 14.6
2003-09-03 06:46:17 51°19.15 2°50.23 324.3 13.8 322 14.2
2003-09-03 06:46:23 51°19.16 2°50.2 324.1 13.8 322 14.3
2003-09-03 06:46:27 51°19.18 2°50.19 324 13.8 321 13.7
2003-09-03 06:46:33 51°19.19 2°50.16 323.9 13.8 322 13.2
2003-09-03 06:46:37 51°19.21 2°50.15 324.2 13.8 321 13.4
2003-09-03 06:46:43 51°19.22 2°50.13 324.4 13.9 322 13.6
2003-09-03 06:46:47 51°19.24 2°50.11 324.4 13.9 322 13.5
2003-09-03 06:46:53 51°19.25 2°50.09 324.6 13.9 322 13.4
2003-09-03 06:46:57 51°19.27 2°50.07 324.6 13.9 322 13.2
2003-09-03 06:47:03 51°19.29 2°50.05 324.4 13.9 322 13.1
2003-09-03 06:47:07 51°19.3 2°50.04 324.3 13.8 322 12.8
2003-09-03 06:47:13 51°19.32 2°50.01 324.2 13.8 321 12.4
2003-09-03 06:47:17 51°19.33 2°50 323.9 13.8 322 12.7
2003-09-03 06:47:23 51°19.35 2°49.98 324.3 13.9 322 12.9
2003-09-03 06:47:27 51°19.36 2°49.96 324.3 13.9 322 13.8
2003-09-03 06:47:33 51°19.38 2°49.94 324.4 13.8 322 13.7
2003-09-03 06:47:37 51°19.39 2°49.92 324.4 13.9 322 14.1
2003-09-03 06:47:43 51°19.41 2°49.9 324.2 13.9 322 14.2
2003-09-03 06:47:47 51°19.42 2°49.88 324.1 13.9 322 15.1
2003-09-03 06:47:53 51°19.44 2°49.86 324.3 13.9 322 15.1
2003-09-03 06:47:57 51°19.45 2°49.85 324.4 13.9 323 15.3
2003-09-03 06:48:03 51°19.47 2°49.82 324.4 13.9 323 15.6
2003-09-03 06:48:07 51°19.48 2°49.81 324.7 13.9 323 15.4
2003-09-03 06:48:11 51°19.49 2°49.79 324.6 13.9 322 15.6
2003-09-03 06:48:17 51°19.51 2°49.77 324.4 13.9 322 15.4
2003-09-03 06:48:23 51°19.53 2°49.75 324.3 13.9 322 15.7
2003-09-03 06:48:27 51°19.54 2°49.73 324.3 13.9 323 15.5
2003-09-03 06:48:33 51°19.56 2°49.71 324.5 13.9 323 15.4
2003-09-03 06:48:37 51°19.57 2°49.7 324.9 13.9 324 15.8
2003-09-03 06:48:43 51°19.59 2°49.68 325.4 13.9 324 16.1
2003-09-03 06:48:47 51°19.6 2°49.66 325.6 13.9 325 16.2
2003-09-03 06:48:53 51°19.62 2°49.64 325.3 14 324 16.7
2003-09-03 06:48:57 51°19.63 2°49.63 325.4 14 324 16.9
2003-09-03 06:49:03 51°19.65 2°49.6 325.1 13.9 324 17.2
2003-09-03 06:49:07 51°19.67 2°49.59 325 13.9 324 17.3
2003-09-03 06:49:13 51°19.68 2°49.57 324.4 14 323 17.6
2003-09-03 06:49:17 51°19.7 2°49.55 324.2 13.8 323 17.8
2003-09-03 06:49:23 51°19.71 2°49.53 324.1 13.8 323 17.8
2003-09-03 06:49:27 51°19.73 2°49.51 324.1 13.8 323 17.9
2003-09-03 06:49:33 51°19.75 2°49.49 323.9 13.9 323 18
2003-09-03 06:49:37 51°19.76 2°49.48 324.1 13.9 324 18.3
2003-09-03 06:49:43 51°19.78 2°49.46 324.4 13.9 323 18.7
2003-09-03 06:49:47 51°19.79 2°49.44 324.3 13.9 324 18.9
2003-09-03 06:49:53 51°19.81 2°49.42 324.2 13.9 323 18.8
2003-09-03 06:49:57 51°19.82 2°49.4 323.9 13.9 323 19.2
2003-09-03 06:50:03 51°19.84 2°49.38 323.9 13.9 324 19.5
2003-09-03 06:50:07 51°19.85 2°49.37 324.2 13.9 324 19.5
2003-09-03 06:50:13 51°19.87 2°49.35 324 13.9 324 20
2003-09-03 06:50:17 51°19.88 2°49.33 324.3 13.9 324 20.2
2003-09-03 06:50:23 51°19.9 2°49.31 324.2 13.9 324 20.4
2003-09-03 06:50:27 51°19.91 2°49.29 323.9 13.9 323 20.5
2003-09-03 06:50:33 51°19.93 2°49.27 323.8 13.9 323 20.8
2003-09-03 06:50:37 51°19.94 2°49.26 323.8 13.9 323 21.3
2003-09-03 06:50:43 51°19.96 2°49.24 324.2 13.9 324 21.2
2003-09-03 06:50:47 51°19.97 2°49.22 324.3 13.8 323 21.7
2003-09-03 06:50:51 51°19.99 2°49.21 324.2 13.8 323 21.7
2003-09-03 06:50:57 51°20 2°49.18 323.7 13.8 323 21.8
2003-09-03 06:51:03 51°20.02 2°49.16 323.8 13.9 323 22.3
2003-09-03 06:51:07 51°20.04 2°49.15 324 13.9 323 22.7
2003-09-03 06:51:13 51°20.05 2°49.13 324.3 13.8 323 22.6
2003-09-03 06:51:17 51°20.07 2°49.11 324.4 13.9 323 22.8
2003-09-03 06:51:23 51°20.08 2°49.09 324.4 13.9 323 23.1
2003-09-03 06:51:27 51°20.1 2°49.07 324.3 13.9 323 23.3
2003-09-03 06:51:33 51°20.12 2°49.05 324.3 13.9 323 23.5
2003-09-03 06:51:37 51°20.13 2°49.04 324.2 13.9 323 23.7
2003-09-03 06:51:43 51°20.15 2°49.02 323.9 13.9 323 23.8
2003-09-03 06:51:47 51°20.16 2°49 324 13.9 323 24
2003-09-03 06:51:53 51°20.18 2°48.98 324.3 13.9 323 24
2003-09-03 06:51:57 51°20.19 2°48.96 324.3 13.9 323 24
2003-09-03 06:52:03 51°20.21 2°48.94 324.4 13.9 323 24
2003-09-03 06:52:07 51°20.22 2°48.93 324.2 13.8 322 24.1
2003-09-03 06:52:13 51°20.24 2°48.9 323.8 13.9 322 24.3
2003-09-03 06:52:17 51°20.25 2°48.89 324 13.9 323 24.2
2003-09-03 06:52:23 51°20.27 2°48.87 324 13.9 324 24.2
2003-09-03 06:52:27 51°20.28 2°48.85 324.8 13.9 324 24.1
2003-09-03 06:52:33 51°20.3 2°48.83 324.8 13.9 323 24.3
2003-09-03 06:52:37 51°20.31 2°48.82 324.5 13.9 323 24.4
2003-09-03 06:52:43 51°20.33 2°48.79 324 14 323 24.4
2003-09-03 06:52:47 51°20.34 2°48.78 324.1 13.9 322 24.6
2003-09-03 06:52:53 51°20.36 2°48.76 323.6 13.9 323 24.3
2003-09-03 06:52:57 51°20.37 2°48.74 323.6 14 322 24.2
2003-09-03 06:53:03 51°20.39 2°48.72 323.7 13.9 322 24.4
2003-09-03 06:53:07 51°20.4 2°48.7 323.9 13.9 322 24.4
2003-09-03 06:53:13 51°20.42 2°48.68 324.3 13.9 323 24.5
2003-09-03 06:53:17 51°20.44 2°48.67 324.4 14 322 24.5
2003-09-03 06:53:23 51°20.45 2°48.64 324.5 13.9 322 24.3
2003-09-03 06:53:27 51°20.47 2°48.63 324.3 13.9 322 24.4
2003-09-03 06:53:33 51°20.48 2°48.61 324.4 13.8 322 24.3
2003-09-03 06:53:37 51°20.5 2°48.59 324 13.8 322 24
2003-09-03 06:53:43 51°20.51 2°48.57 323.9 13.8 323 24.2
2003-09-03 06:53:47 51°20.53 2°48.55 324.3 13.8 322 24.1
2003-09-03 06:53:53 51°20.54 2°48.53 324 13.8 323 24
2003-09-03 06:53:57 51°20.56 2°48.52 324 13.9 322 23.9
2003-09-03 06:54:03 51°20.57 2°48.49 324.3 13.8 322 23.8
2003-09-03 06:54:07 51°20.59 2°48.48 324.2 13.7 322 23.6
2003-09-03 06:54:13 51°20.6 2°48.45 324.1 13.8 322 23.6
2003-09-03 06:54:17 51°20.62 2°48.44 324.3 13.9 322 23.3
2003-09-03 06:54:23 51°20.64 2°48.42 324.4 13.9 323 23.6
2003-09-03 06:54:27 51°20.65 2°48.4 324.9 13.9 323 23
2003-09-03 06:54:33 51°20.67 2°48.38 325 13.8 322 22.8
2003-09-03 06:54:37 51°20.68 2°48.36 324.2 13.9 321 22.8
2003-09-03 06:54:43 51°20.7 2°48.34 323.6 13.8 321 22.5
2003-09-03 06:54:47 51°20.71 2°48.33 322.8 13.8 320 22.4
2003-09-03 06:54:53 51°20.72 2°48.3 322.6 13.8 320 22.3
2003-09-03 06:54:57 51°20.74 2°48.29 322.4 13.8 320 22.3
2003-09-03 06:55:03 51°20.75 2°48.26 322.2 13.8 320 22.1
2003-09-03 06:55:07 51°20.77 2°48.25 321.8 13.9 320 22
2003-09-03 06:55:11 51°20.78 2°48.23 321.8 13.9 320 21.9
2003-09-03 06:55:17 51°20.8 2°48.21 321.9 13.9 320 21.8
2003-09-03 06:55:23 51°20.81 2°48.18 322.2 13.9 320 21.5
2003-09-03 06:55:27 51°20.82 2°48.17 322.2 13.9 319 21.7
2003-09-03 06:55:33 51°20.84 2°48.14 322.1 13.8 319 21.5
2003-09-03 06:55:37 51°20.85 2°48.13 321.7 13.8 320 21.6
2003-09-03 06:55:43 51°20.87 2°48.1 322.2 13.8 320 21.3
2003-09-03 06:55:47 51°20.88 2°48.09 322.2 13.7 320 21.2
2003-09-03 06:55:53 51°20.9 2°48.07 322.4 13.8 320 21.4
2003-09-03 06:55:57 51°20.91 2°48.05 322.2 13.7 320 21.4
2003-09-03 06:56:03 51°20.93 2°48.03 322.2 13.8 320 21.6
2003-09-03 06:56:07 51°20.94 2°48.01 322.2 13.8 320 21.5
2003-09-03 06:56:13 51°20.96 2°47.99 322.2 13.8 319 21.8
2003-09-03 06:56:17 51°20.97 2°47.97 322.2 13.7 320 21.9
2003-09-03 06:56:23 51°20.99 2°47.95 321.8 13.7 319 21
2003-09-03 06:56:27 51°21 2°47.93 321.9 13.8 320 20.7
2003-09-03 06:56:33 51°21.02 2°47.91 322.2 13.7 320 20.9
2003-09-03 06:56:37 51°21.03 2°47.89 322.2 13.8 320 20.5
2003-09-03 06:56:43 51°21.05 2°47.87 322.2 13.8 320 21
2003-09-03 06:56:47 51°21.06 2°47.85 322.1 13.8 319 21.5
2003-09-03 06:56:53 51°21.08 2°47.83 321.7 13.8 320 21.7
2003-09-03 06:56:57 51°21.09 2°47.81 322.1 13.8 320 22.2
2003-09-03 06:57:03 51°21.1 2°47.79 322.1 13.7 319 22.7
2003-09-03 06:57:07 51°21.12 2°47.77 321.5 13.7 319 23
2003-09-03 06:57:13 51°21.13 2°47.75 321.1 13.8 318 22.8
2003-09-03 06:57:17 51°21.15 2°47.73 321.1 13.7 319 22.2
2003-09-03 06:57:23 51°21.16 2°47.71 320.9 13.7 318 21.4
2003-09-03 06:57:27 51°21.17 2°47.69 320.8 13.7 318 21.7
2003-09-03 06:57:33 51°21.19 2°47.67 320.5 13.7 318 22
2003-09-03 06:57:37 51°21.2 2°47.65 320 13.8 318 22.6
2003-09-03 06:57:43 51°21.22 2°47.63 319.7 13.8 317 23.4
2003-09-03 06:57:47 51°21.23 2°47.61 320 13.8 318 23.1
2003-09-03 06:57:53 51°21.25 2°47.59 320.2 13.8 318 23.8
2003-09-03 06:57:57 51°21.26 2°47.57 320.2 13.8 318 24.1
2003-09-03 06:58:03 51°21.28 2°47.54 320.3 13.6 319 23.6
2003-09-03 06:58:07 51°21.29 2°47.53 320.4 13.7 318 23.3
2003-09-03 06:58:13 51°21.3 2°47.5 320.2 13.7 318 23.5
2003-09-03 06:58:17 51°21.31 2°47.49 319.9 13.7 317 24.1
2003-09-03 06:58:23 51°21.33 2°47.46 319.7 13.6 318 24.5
2003-09-03 06:58:27 51°21.34 2°47.45 319.7 13.6 317 24.5
2003-09-03 06:58:33 51°21.36 2°47.42 319.9 13.6 317 24.4
2003-09-03 06:58:37 51°21.37 2°47.41 320 13.7 318 24.7
2003-09-03 06:58:43 51°21.39 2°47.38 320.3 13.7 318 25
2003-09-03 06:58:47 51°21.4 2°47.37 320.5 13.7 319 25.2
2003-09-03 06:58:53 51°21.42 2°47.34 320.8 13.7 318 25
2003-09-03 06:58:57 51°21.43 2°47.33 320.5 13.7 318 25.5
2003-09-03 06:59:03 51°21.44 2°47.3 319.9 13.7 318 25.6
2003-09-03 06:59:07 51°21.46 2°47.29 320 13.7 318 25.7
2003-09-03 06:59:13 51°21.47 2°47.26 320 13.7 318 26
2003-09-03 06:59:17 51°21.48 2°47.24 320 13.8 318 25.7
2003-09-03 06:59:23 51°21.5 2°47.22 320.1 13.7 319 25.9
2003-09-03 06:59:27 51°21.51 2°47.2 320.3 13.7 319 25.9
2003-09-03 06:59:33 51°21.53 2°47.18 320.6 13.7 318 26.3
2003-09-03 06:59:37 51°21.54 2°47.16 319.8 13.7 317 26.7
2003-09-03 06:59:43 51°21.56 2°47.14 319.5 13.8 318 26.5
2003-09-03 06:59:47 51°21.57 2°47.12 320.9 13.8 320 26.5
2003-09-03 06:59:53 51°21.59 2°47.1 322.7 13.8 322 26.5
2003-09-03 06:59:59 51°21.61 2°47.08 323.5 13.9 323 25.9
2003-09-03 07:00:03 51°21.62 2°47.06 324.4 13.9 324 25.5
2003-09-03 07:00:07 51°21.63 2°47.05 325.1 13.9 323 26.1
2003-09-03 07:00:11 51°21.64 2°47.03 325.1 14 324 25.7
2003-09-03 07:00:17 51°21.66 2°47.01 325.2 13.9 323 25.9
2003-09-03 07:00:23 51°21.68 2°46.99 324.9 13.9 323 25.8
2003-09-03 07:00:27 51°21.69 2°46.98 324.6 13.9 323 25.9
2003-09-03 07:00:31 51°21.7 2°46.96 324.2 13.9 323 26.2
2003-09-03 07:00:37 51°21.72 2°46.94 324.4 13.9 322 26.2
2003-09-03 07:00:43 51°21.74 2°46.91 323.9 13.9 322 25.8
2003-09-03 07:00:47 51°21.75 2°46.9 324 14 323 26
2003-09-03 07:00:51 51°21.77 2°46.89 324.6 13.9 324 26
2003-09-03 07:00:57 51°21.79 2°46.86 324.8 14 324 26
2003-09-03 07:01:03 51°21.8 2°46.84 325.1 14 324 26.1
2003-09-03 07:01:07 51°21.82 2°46.83 325.1 14 324 26.2
2003-09-03 07:01:11 51°21.83 2°46.81 324.5 13.9 323 25.8
2003-09-03 07:01:17 51°21.85 2°46.79 324.1 13.9 323 25.9
2003-09-03 07:01:23 51°21.87 2°46.77 324 13.9 323 25.9
2003-09-03 07:01:27 51°21.88 2°46.75 324.2 14 324 25.7
2003-09-03 07:01:33 51°21.9 2°46.73 324.7 14 324 25.7
2003-09-03 07:01:37 51°21.91 2°46.72 324.9 13.9 325 25.3
2003-09-03 07:01:43 51°21.93 2°46.7 325.3 13.9 324 25
2003-09-03 07:01:47 51°21.94 2°46.68 324.7 13.9 323 24.9
2003-09-03 07:01:51 51°21.95 2°46.67 324.7 14 324 24.6
2003-09-03 07:01:57 51°21.97 2°46.64 324.5 14 323 24.5
2003-09-03 07:02:03 51°21.99 2°46.62 324.3 14 324 24.4
2003-09-03 07:02:07 51°22 2°46.61 324.7 13.9 323 24
2003-09-03 07:02:11 51°22.02 2°46.59 324.5 13.9 322 23.7
2003-09-03 07:02:17 51°22.03 2°46.57 323.5 13.9 322 23.6
2003-09-03 07:02:23 51°22.05 2°46.55 323.2 13.9 322 23.3
2003-09-03 07:02:27 51°22.06 2°46.53 323.7 13.9 322 23.2
2003-09-03 07:02:33 51°22.08 2°46.51 324 13.9 323 23
2003-09-03 07:02:37 51°22.09 2°46.49 324.4 13.9 323 22.5
2003-09-03 07:02:43 51°22.11 2°46.47 324.6 13.9 322 22.2
2003-09-03 07:02:47 51°22.13 2°46.46 324 13.9 322 22.5
2003-09-03 07:02:53 51°22.14 2°46.44 324.2 13.8 322 22.3
2003-09-03 07:02:57 51°22.16 2°46.42 323.8 13.9 322 22
2003-09-03 07:03:03 51°22.17 2°46.4 324.3 13.9 323 22.2
2003-09-03 07:03:07 51°22.19 2°46.38 324.6 13.9 322 21.7
2003-09-03 07:03:11 51°22.2 2°46.37 324.6 13.9 323 21.8
2003-09-03 07:03:17 51°22.22 2°46.35 324.7 13.9 322 21.5
2003-09-03 07:03:23 51°22.24 2°46.32 324.6 14 322 21.5
2003-09-03 07:03:27 51°22.25 2°46.31 324.1 14 322 21.4
2003-09-03 07:03:33 51°22.27 2°46.29 324.4 14 323 21.5
2003-09-03 07:03:37 51°22.28 2°46.27 324.4 14 322 21.4
2003-09-03 07:03:43 51°22.3 2°46.25 324.7 14 322 21.5
2003-09-03 07:03:47 51°22.31 2°46.23 324.5 14 323 21.5
2003-09-03 07:03:53 51°22.33 2°46.21 324.4 14 322 20
2003-09-03 07:03:59 51°22.35 2°46.19 324 14 321 20.9
2003-09-03 07:04:09 51°22.38 2°46.15 323.6 14 322 22.6
2003-09-03 07:04:13 51°22.39 2°46.13 324 14 321 22.4
2003-09-03 07:04:19 51°22.41 2°46.11 324 14 321 23
2003-09-03 07:04:23 51°22.42 2°46.09 323.8 14 322 23
2003-09-03 07:04:29 51°22.44 2°46.07 324.1 14 322 23.3
2003-09-03 07:04:33 51°22.45 2°46.06 324.4 14.1 322 23.5
2003-09-03 07:04:39 51°22.47 2°46.03 324.9 14 323 23.8
2003-09-03 07:04:43 51°22.48 2°46.02 325 14 322 23.5
2003-09-03 07:04:47 51°22.49 2°46 324.9 13.9 321 23.5
2003-09-03 07:04:53 51°22.51 2°45.98 324.1 13.9 321 23.9
2003-09-03 07:04:59 51°22.53 2°45.96 324 14 321 24
2003-09-03 07:05:03 51°22.54 2°45.94 323.7 14 322 23.9
2003-09-03 07:05:09 51°22.56 2°45.92 324.2 14 322 24.5
2003-09-03 07:05:13 51°22.57 2°45.9 324.4 14 322 24.5
2003-09-03 07:05:19 51°22.59 2°45.88 324.8 14 323 24.6
2003-09-03 07:05:23 51°22.6 2°45.86 324.9 14 322 25.1
2003-09-03 07:05:29 51°22.62 2°45.84 324.9 14.1 322 25.4
2003-09-03 07:05:33 51°22.63 2°45.83 324.5 14 321 25.6
2003-09-03 07:05:39 51°22.65 2°45.8 323.6 14 321 25.6
2003-09-03 07:05:43 51°22.66 2°45.79 324 14 322 26.1
2003-09-03 07:05:49 51°22.68 2°45.76 324.6 14 322 25.7
2003-09-03 07:05:53 51°22.69 2°45.75 324.9 14.1 322 25.7
2003-09-03 07:05:59 51°22.71 2°45.73 324.8 14.1 321 25.5
2003-09-03 07:06:03 51°22.72 2°45.71 324.2 14 321 25
2003-09-03 07:06:09 51°22.74 2°45.69 324.2 14.1 322 23.4
2003-09-03 07:06:13 51°22.76 2°45.67 324.4 14.1 322 25.7
2003-09-03 07:06:19 51°22.77 2°45.65 324.4 14.1 322 26.3
2003-09-03 07:06:23 51°22.79 2°45.63 324.5 14 322 26.3
2003-09-03 07:06:29 51°22.8 2°45.61 324.2 14.1 321 26.7
2003-09-03 07:06:35 51°22.82 2°45.59 324 14 321 27.1
2003-09-03 07:06:39 51°22.83 2°45.57 324.2 14 321 27.7
2003-09-03 07:06:43 51°22.85 2°45.56 324 14 322 28.1
2003-09-03 07:06:49 51°22.86 2°45.53 323.8 14 320 28.2
2003-09-03 07:06:53 51°22.88 2°45.52 323.6 14 321 28.4
2003-09-03 07:06:59 51°22.9 2°45.49 323.6 14 321 28.2
2003-09-03 07:07:03 51°22.91 2°45.48 323.9 14 323 28.2
2003-09-03 07:07:09 51°22.93 2°45.46 324.4 13.9 322 28.3
2003-09-03 07:07:13 51°22.94 2°45.44 324.4 13.9 323 28
2003-09-03 07:07:19 51°22.96 2°45.42 324.9 13.9 322 27.4
2003-09-03 07:07:23 51°22.97 2°45.4 324.9 14 323 28
2003-09-03 07:07:29 51°22.99 2°45.38 325.1 13.9 322 28.4
2003-09-03 07:07:35 51°23.01 2°45.36 325 14 322 28.3
2003-09-03 07:07:39 51°23.02 2°45.34 324.4 13.9 321 28.5
2003-09-03 07:07:43 51°23.03 2°45.33 324 13.9 321 28.6
2003-09-03 07:07:49 51°23.05 2°45.31 323.8 13.8 322 27.9
2003-09-03 07:07:53 51°23.06 2°45.29 323.7 13.8 322 27.8
2003-09-03 07:07:59 51°23.08 2°45.27 324 13.8 322 27.9
2003-09-03 07:08:03 51°23.09 2°45.25 324.4 13.9 322 27.7
2003-09-03 07:08:09 51°23.11 2°45.23 324.2 13.9 322 28
2003-09-03 07:08:15 51°23.13 2°45.21 324.5 14 321 28.8
2003-09-03 07:08:19 51°23.14 2°45.19 324.3 13.9 323 28.7
2003-09-03 07:08:23 51°23.15 2°45.18 324.4 13.9 322 28.7
2003-09-03 07:08:29 51°23.17 2°45.15 323.8 14 322 28.4
2003-09-03 07:08:33 51°23.18 2°45.14 324.2 13.9 322 28.1
2003-09-03 07:08:39 51°23.2 2°45.12 324.5 14 323 28.1
2003-09-03 07:08:43 51°23.21 2°45.1 324.2 14 322 28.2
2003-09-03 07:08:47 51°23.22 2°45.09 324.6 14 323 28.1
2003-09-03 07:08:51 51°23.24 2°45.07 324.8 14 323 28.6
2003-09-03 07:08:59 51°23.26 2°45.04 324.7 13.9 323 27.9
2003-09-03 07:09:03 51°23.27 2°45.03 324.7 14 323 28.1
2003-09-03 07:09:07 51°23.29 2°45.01 324.3 14 323 28.4
2003-09-03 07:09:11 51°23.3 2°45 324.2 14 322 28.3
2003-09-03 07:09:19 51°23.32 2°44.97 323.8 14 323 28.1
2003-09-03 07:09:23 51°23.34 2°44.95 324.1 14 324 28.4
2003-09-03 07:09:27 51°23.35 2°44.94 324.4 14 323 28.4
2003-09-03 07:09:31 51°23.36 2°44.92 324.3 14 323 27.6
2003-09-03 07:09:39 51°23.39 2°44.89 324.3 14 323 27.1
2003-09-03 07:09:43 51°23.4 2°44.88 324.4 14 324 27.9
2003-09-03 07:09:47 51°23.41 2°44.86 324.6 14 323 28.6
2003-09-03 07:09:53 51°23.43 2°44.84 323.9 14 322 28.5
2003-09-03 07:09:59 51°23.45 2°44.82 323.8 14 323 28.6
2003-09-03 07:10:03 51°23.46 2°44.8 324.3 14 323 28.9
2003-09-03 07:10:09 51°23.48 2°44.78 324.2 14 323 27.3
2003-09-03 07:10:13 51°23.49 2°44.76 324 14 322 26.8
2003-09-03 07:10:19 51°23.51 2°44.74 324.1 13.9 322 27.5
2003-09-03 07:10:23 51°23.52 2°44.73 324.2 14 323 28
2003-09-03 07:10:29 51°23.54 2°44.7 324.4 13.9 323 27.5
2003-09-03 07:10:31 51°23.55 2°44.7 324.2 13.9 322 26.9
2003-09-03 07:10:39 51°23.57 2°44.67 323.7 13.9 322 27
2003-09-03 07:10:43 51°23.58 2°44.65 323.6 14 322 26.9
2003-09-03 07:10:49 51°23.6 2°44.63 323.6 13.9 322 27.2
2003-09-03 07:10:53 51°23.61 2°44.61 323.8 14 323 27.1
2003-09-03 07:10:59 51°23.63 2°44.59 324.1 14 323 27.5
2003-09-03 07:11:03 51°23.64 2°44.58 324.8 14 323 28.2
2003-09-03 07:11:09 51°23.66 2°44.55 324.4 14 322 28.8
2003-09-03 07:11:13 51°23.68 2°44.54 324.4 14 322 28.6
2003-09-03 07:11:19 51°23.69 2°44.52 324.3 14 323 28.6
2003-09-03 07:11:23 51°23.71 2°44.5 324.3 14 323 28.1
2003-09-03 07:11:29 51°23.72 2°44.48 323.9 14.1 323 28.7
2003-09-03 07:11:33 51°23.74 2°44.46 324.6 14 323 28.5
2003-09-03 07:11:39 51°23.76 2°44.44 324.4 14 323 28.1
2003-09-03 07:11:43 51°23.77 2°44.42 324.3 14 322 28.5
2003-09-03 07:11:49 51°23.79 2°44.4 323.9 14 323 28.7
2003-09-03 07:11:51 51°23.79 2°44.39 323.9 13.9 323 28.4
2003-09-03 07:11:59 51°23.82 2°44.36 324.5 13.9 322 28.8
2003-09-03 07:12:03 51°23.83 2°44.35 324.3 14 324 28.5
2003-09-03 07:12:09 51°23.85 2°44.33 325 14 323 28.6
2003-09-03 07:12:13 51°23.86 2°44.31 324.4 14 323 27.9
2003-09-03 07:12:19 51°23.88 2°44.29 324.5 14 323 28.1
2003-09-03 07:12:23 51°23.89 2°44.28 324.4 14 323 28.2
2003-09-03 07:12:29 51°23.91 2°44.25 324 13.9 322 28.4
2003-09-03 07:12:31 51°23.92 2°44.24 323.9 13.9 323 28.2
2003-09-03 07:12:39 51°23.94 2°44.22 323.7 14 322 28.1
2003-09-03 07:12:43 51°23.95 2°44.2 324.1 14 323 27.6
2003-09-03 07:12:49 51°23.97 2°44.18 324.7 14 324 26.8
2003-09-03 07:12:55 51°23.99 2°44.16 324.8 14 324 26.6
2003-09-03 07:12:59 51°24 2°44.14 324.6 14 325 25.5
2003-09-03 07:13:03 51°24.02 2°44.13 325.1 14 323 23.6
2003-09-03 07:13:07 51°24.03 2°44.11 324.7 13.9 324 22.9
2003-09-03 07:13:11 51°24.04 2°44.1 324.4 13.9 323 24
2003-09-03 07:13:19 51°24.07 2°44.07 324.2 13.9 324 23.6
2003-09-03 07:13:23 51°24.08 2°44.05 323.8 13.9 323 24.4
2003-09-03 07:13:29 51°24.1 2°44.03 323.9 14 324 26
2003-09-03 07:13:33 51°24.11 2°44.02 324.3 14 322 25.5
2003-09-03 07:13:39 51°24.13 2°43.99 323.8 13.9 324 26.2
2003-09-03 07:13:43 51°24.14 2°43.98 324 13.9 323 26.4
2003-09-03 07:13:47 51°24.15 2°43.96 324.3 14 324 26.3
2003-09-03 07:13:51 51°24.16 2°43.95 324.5 14 323 26
2003-09-03 07:13:59 51°24.19 2°43.92 324 14 323 26.1
2003-09-03 07:14:03 51°24.2 2°43.91 323.9 13.9 324 26.2
2003-09-03 07:14:09 51°24.22 2°43.88 324.9 14 323 26.5
2003-09-03 07:14:13 51°24.23 2°43.87 324.3 14 323 26.7
2003-09-03 07:14:19 51°24.25 2°43.85 324.3 14 322 27
2003-09-03 07:14:23 51°24.26 2°43.83 324.3 14 324 27.7
2003-09-03 07:14:29 51°24.28 2°43.81 324.7 14 323 27.9
2003-09-03 07:14:35 51°24.3 2°43.79 324.4 13.9 323 28.3
2003-09-03 07:14:39 51°24.31 2°43.77 324.2 13.9 323 28
2003-09-03 07:14:43 51°24.33 2°43.76 324.5 13.9 323 27.7
2003-09-03 07:14:47 51°24.34 2°43.74 324 13.9 323 27.3
2003-09-03 07:14:51 51°24.35 2°43.73 324.2 13.9 323 27.3
2003-09-03 07:14:59 51°24.37 2°43.7 324.1 13.9 323 27
2003-09-03 07:15:03 51°24.39 2°43.68 324 13.9 322 27.2
2003-09-03 07:15:09 51°24.41 2°43.66 323.9 14 323 27.1
2003-09-03 07:15:13 51°24.42 2°43.64 324.3 14 323 26.8
2003-09-03 07:15:19 51°24.44 2°43.62 324.3 14 322 26.8
2003-09-03 07:15:23 51°24.45 2°43.61 324.2 14 323 26.6
2003-09-03 07:15:29 51°24.47 2°43.58 324 14 323 26.6
2003-09-03 07:15:33 51°24.48 2°43.57 324.8 13.9 322 26.5
2003-09-03 07:15:39 51°24.5 2°43.55 324.4 14 323 26.1
2003-09-03 07:15:43 51°24.51 2°43.53 324.4 14 323 26.4
2003-09-03 07:15:49 51°24.53 2°43.51 324.4 14 323 26.5
2003-09-03 07:15:51 51°24.54 2°43.5 324.4 14 323 25.9
2003-09-03 07:15:59 51°24.56 2°43.47 324.1 14 323 25.9
2003-09-03 07:16:03 51°24.57 2°43.46 324.2 14 322 25.6
2003-09-03 07:16:09 51°24.59 2°43.43 324.2 14 323 25
2003-09-03 07:16:13 51°24.6 2°43.42 323.9 14 323 24.3
2003-09-03 07:16:19 51°24.62 2°43.4 324.6 14.1 323 24.1
2003-09-03 07:16:23 51°24.63 2°43.38 324.6 13.9 323 23.6
2003-09-03 07:16:29 51°24.65 2°43.36 324.6 14 323 22.8
2003-09-03 07:16:31 51°24.66 2°43.35 324.4 14 323 22.3
2003-09-03 07:16:39 51°24.68 2°43.32 324.5 14 323 21.6
2003-09-03 07:16:43 51°24.7 2°43.31 325 13.9 324 21.1
2003-09-03 07:16:49 51°24.72 2°43.28 325.1 14 322 20.8
2003-09-03 07:16:55 51°24.73 2°43.26 324.6 14.1 323 20.7
2003-09-03 07:16:59 51°24.75 2°43.25 324.7 14.1 323 20.7
2003-09-03 07:17:03 51°24.76 2°43.23 324.7 14 324 21.1
2003-09-03 07:17:07 51°24.77 2°43.22 324.5 14 323 21
2003-09-03 07:17:11 51°24.78 2°43.2 324.4 14.1 324 20.7
2003-09-03 07:17:19 51°24.81 2°43.17 324.7 14 322 20.3
2003-09-03 07:17:23 51°24.82 2°43.16 324.4 14.1 324 19.4
2003-09-03 07:17:29 51°24.84 2°43.14 324 14 323 19.7
2003-09-03 07:17:33 51°24.85 2°43.12 324.5 14 323 20.5
2003-09-03 07:17:39 51°24.87 2°43.1 324.4 14 323 21.4
2003-09-03 07:17:43 51°24.88 2°43.08 324.5 14 324 21.9
2003-09-03 07:17:47 51°24.9 2°43.07 324 14.1 323 22.2
2003-09-03 07:17:53 51°24.91 2°43.05 323.9 14 324 21.4
2003-09-03 07:17:59 51°24.93 2°43.02 324.4 14 322 21.2
2003-09-03 07:18:03 51°24.95 2°43.01 324.1 14 323 22.7
2003-09-03 07:18:07 51°24.96 2°42.99 324.2 14 323 24.3
2003-09-03 07:18:11 51°24.97 2°42.98 324.3 14 323 25
2003-09-03 07:18:19 51°25 2°42.95 324.2 14 322 25.3
2003-09-03 07:18:23 51°25.01 2°42.93 323.7 14 322 25.6
2003-09-03 07:18:29 51°25.03 2°42.91 323.9 14 323 26
2003-09-03 07:18:31 51°25.03 2°42.9 324.2 14 323 26.3
2003-09-03 07:18:39 51°25.06 2°42.87 324.4 14.1 324 26.4
2003-09-03 07:18:43 51°25.07 2°42.86 324.8 14.1 323 26.7
2003-09-03 07:18:49 51°25.09 2°42.84 324.5 13.9 323 26
2003-09-03 07:18:55 51°25.11 2°42.81 323.9 14 322 26.1
2003-09-03 07:18:59 51°25.12 2°42.8 323.8 14 322 25.3
2003-09-03 07:19:03 51°25.13 2°42.78 323.9 14 323 25
2003-09-03 07:19:09 51°25.15 2°42.76 324.6 14.1 324 25.3
2003-09-03 07:19:13 51°25.16 2°42.75 324.3 14.1 324 21.6
2003-09-03 07:19:19 51°25.18 2°42.72 324.8 14.1 324 23.9
2003-09-03 07:19:23 51°25.19 2°42.71 324.8 14 324 25.6
2003-09-03 07:19:29 51°25.21 2°42.69 324.8 14.1 323 26.4
2003-09-03 07:19:33 51°25.23 2°42.67 324.6 14.2 323 26.9
2003-09-03 07:19:39 51°25.24 2°42.65 323.8 14 323 26.5
2003-09-03 07:19:43 51°25.26 2°42.63 323.6 14.1 323 25.3
2003-09-03 07:19:49 51°25.27 2°42.61 324 14 323 25.1
2003-09-03 07:19:55 51°25.29 2°42.59 323.9 14.1 323 24.5
2003-09-03 07:19:59 51°25.31 2°42.58 324.2 14 325 24.2
2003-09-03 07:20:03 51°25.32 2°42.56 325.1 14 323 23
2003-09-03 07:20:07 51°25.33 2°42.55 325.1 14.1 324 24.1
2003-09-03 07:20:11 51°25.34 2°42.53 324.5 14.1 323 25.5
2003-09-03 07:20:19 51°25.37 2°42.5 323.9 14.1 323 25.9
2003-09-03 07:20:23 51°25.38 2°42.49 323.8 14.1 323 25.8
2003-09-03 07:20:29 51°25.4 2°42.46 324.4 14 323 23.5
2003-09-03 07:20:33 51°25.41 2°42.45 324.1 14 322 24.7
2003-09-03 07:20:39 51°25.43 2°42.43 324 14 323 25.1
2003-09-03 07:20:43 51°25.44 2°42.41 323.9 14.1 323 24.7
2003-09-03 07:20:47 51°25.46 2°42.4 323.7 14.1 324 25
2003-09-03 07:20:51 51°25.47 2°42.38 324.5 14.1 323 26.2
2003-09-03 07:20:59 51°25.49 2°42.35 324.2 14.1 323 26.3
2003-09-03 07:21:03 51°25.51 2°42.34 324.2 14.1 324 27
2003-09-03 07:21:09 51°25.53 2°42.31 324.2 14.1 323 27.3
2003-09-03 07:21:13 51°25.54 2°42.3 324.3 14.2 323 27.3
2003-09-03 07:21:19 51°25.56 2°42.28 324.4 14.2 323 26.9
2003-09-03 07:21:23 51°25.57 2°42.26 324.3 14.2 323 26.2
2003-09-03 07:21:29 51°25.59 2°42.24 323.8 14.3 323 26.2
2003-09-03 07:21:35 51°25.61 2°42.22 324.2 14.2 323 26.3
2003-09-03 07:21:39 51°25.62 2°42.2 324.5 14.2 324 26.2
2003-09-03 07:21:43 51°25.63 2°42.19 324.7 14.2 324 25.8
2003-09-03 07:21:49 51°25.65 2°42.16 324.5 14.1 324 25.2
2003-09-03 07:21:55 51°25.67 2°42.14 324.5 14.2 322 24.5
2003-09-03 07:21:59 51°25.68 2°42.13 323.4 14.2 323 25.4
2003-09-03 07:22:03 51°25.69 2°42.11 324.1 14.2 323 26.4
2003-09-03 07:22:09 51°25.71 2°42.09 324 14.1 323 26.6
2003-09-03 07:22:11 51°25.72 2°42.08 324.2 14.2 323 26.8
2003-09-03 07:22:19 51°25.75 2°42.05 324.4 14.2 324 27.4
2003-09-03 07:22:23 51°25.76 2°42.04 324.7 14.1 323 27.7
2003-09-03 07:22:29 51°25.78 2°42.01 324.4 14.1 323 28.4
2003-09-03 07:22:33 51°25.79 2°42 323.6 14.1 322 28.2
2003-09-03 07:22:39 51°25.81 2°41.97 323.6 14.1 323 28.6
2003-09-03 07:22:43 51°25.82 2°41.96 323.7 14.1 323 28.8
2003-09-03 07:22:49 51°25.84 2°41.94 324.4 14.2 323 28.8
2003-09-03 07:22:53 51°25.85 2°41.92 324.4 14.2 323 27.9
2003-09-03 07:22:59 51°25.87 2°41.9 324.4 14.2 323 26.1
2003-09-03 07:23:03 51°25.88 2°41.88 324.3 14.1 323 26.6
2003-09-03 07:23:09 51°25.9 2°41.86 324 14.1 323 28.1
2003-09-03 07:23:11 51°25.91 2°41.85 324 14.2 323 28.7
2003-09-03 07:23:19 51°25.93 2°41.82 323.7 14.2 323 29.3
2003-09-03 07:23:23 51°25.95 2°41.81 324.1 14.2 323 29.5
2003-09-03 07:23:27 51°25.96 2°41.79 323.9 14.1 323 29.6
2003-09-03 07:23:33 51°25.98 2°41.77 324.2 14.2 323 29.8
2003-09-03 07:23:39 51°26 2°41.75 324.2 14.1 323 30
2003-09-03 07:23:43 51°26.01 2°41.73 324.3 14.1 323 29.9
2003-09-03 07:23:49 51°26.03 2°41.71 324.6 14.2 322 29.8
2003-09-03 07:23:53 51°26.04 2°41.7 324 14.2 323 29.8
2003-09-03 07:23:59 51°26.06 2°41.67 324 14.2 323 29.5
2003-09-03 07:24:03 51°26.07 2°41.66 323.9 14.2 322 25
2003-09-03 07:24:09 51°26.09 2°41.63 323.9 14.2 323 26.4
2003-09-03 07:24:13 51°26.1 2°41.62 324.5 14.3 324 27.5
2003-09-03 07:24:19 51°26.12 2°41.6 324.8 14.2 323 28.5
2003-09-03 07:24:23 51°26.13 2°41.58 324.5 14.2 324 29.1
2003-09-03 07:24:29 51°26.15 2°41.56 324 14.1 323 29.3
2003-09-03 07:24:33 51°26.17 2°41.54 324.1 14.2 323 29.4
2003-09-03 07:24:39 51°26.18 2°41.52 324.1 14.2 322 29.5
2003-09-03 07:24:43 51°26.2 2°41.51 323.9 14.2 323 29.8
2003-09-03 07:24:47 51°26.21 2°41.49 324.2 14.1 322 29.8
2003-09-03 07:24:51 51°26.22 2°41.47 324.2 14.2 323 29.7
2003-09-03 07:24:59 51°26.25 2°41.44 324.6 14.1 322 29.5
2003-09-03 07:25:03 51°26.26 2°41.43 324.4 14.1 323 29.5
2003-09-03 07:25:09 51°26.28 2°41.41 324.4 14.1 322 29.8
2003-09-03 07:25:13 51°26.29 2°41.39 324.3 14.2 322 30
2003-09-03 07:25:19 51°26.31 2°41.37 324 14.1 323 30
2003-09-03 07:25:23 51°26.32 2°41.35 324.3 14.2 322 30.1
2003-09-03 07:25:27 51°26.33 2°41.34 324.3 14.1 323 29.6
2003-09-03 07:25:31 51°26.35 2°41.32 324.2 14.1 323 29.9
2003-09-03 07:25:39 51°26.37 2°41.29 324 14.1 323 30
2003-09-03 07:25:43 51°26.38 2°41.28 324.2 14.1 323 30.4
2003-09-03 07:25:47 51°26.4 2°41.26 324.3 14.1 323 30.2
2003-09-03 07:25:51 51°26.41 2°41.25 324.2 14.1 323 30.1
2003-09-03 07:25:59 51°26.43 2°41.22 324.2 14.1 324 30.4
2003-09-03 07:26:03 51°26.45 2°41.2 324.3 14.1 323 30.7
2003-09-03 07:26:09 51°26.47 2°41.18 323.9 14.1 323 30.8
2003-09-03 07:26:15 51°26.48 2°41.16 323.9 14.1 323 31.6
2003-09-03 07:26:19 51°26.5 2°41.14 324.2 14.1 324 31.6
2003-09-03 07:26:23 51°26.51 2°41.13 324.7 14.1 323 31.7
2003-09-03 07:26:29 51°26.53 2°41.1 324.4 14.1 324 31.9
2003-09-03 07:26:33 51°26.54 2°41.09 324.5 14.1 323 32.5
2003-09-03 07:26:39 51°26.56 2°41.07 324.4 14.2 325 32.7
2003-09-03 07:26:43 51°26.57 2°41.05 325 14.1 323 32.9
2003-09-03 07:26:49 51°26.59 2°41.03 324.4 14.1 324 32.8
2003-09-03 07:26:53 51°26.6 2°41.02 324.4 14.1 323 32.8
2003-09-03 07:26:59 51°26.62 2°40.99 324.3 14.1 325 32.9
2003-09-03 07:27:03 51°26.64 2°40.98 324.5 14.1 324 33
2003-09-03 07:27:09 51°26.65 2°40.96 324.8 14.1 324 33
2003-09-03 07:27:13 51°26.67 2°40.94 324.5 14.1 324 32.9
2003-09-03 07:27:19 51°26.69 2°40.92 324.3 14.1 323 33.1
2003-09-03 07:27:23 51°26.7 2°40.91 324 14.1 324 33.3
2003-09-03 07:27:29 51°26.72 2°40.88 324.5 14 324 32.8
2003-09-03 07:27:33 51°26.73 2°40.87 324.4 14 325 33
2003-09-03 07:27:39 51°26.75 2°40.85 324.7 14 324 33.4
2003-09-03 07:27:43 51°26.76 2°40.83 324.3 14 324 33.4
2003-09-03 07:27:49 51°26.78 2°40.81 324.4 14 324 32.4
2003-09-03 07:27:55 51°26.8 2°40.79 324.4 13.9 324 32.4
2003-09-03 07:27:59 51°26.81 2°40.77 324.1 14 324 32.5
2003-09-03 07:28:03 51°26.82 2°40.76 324.1 14 324 32.1
2003-09-03 07:28:09 51°26.84 2°40.74 324.4 14 324 32
2003-09-03 07:28:11 51°26.85 2°40.73 324.2 14 324 32
2003-09-03 07:28:19 51°26.87 2°40.7 324.9 14 324 31.9
2003-09-03 07:28:23 51°26.89 2°40.69 324.9 14 324 31.8
2003-09-03 07:28:29 51°26.9 2°40.67 324.3 13.9 324 32.4
2003-09-03 07:28:31 51°26.91 2°40.66 324.2 13.9 325 32.3
2003-09-03 07:28:39 51°26.94 2°40.63 324.8 13.9 325 32.8
2003-09-03 07:28:43 51°26.95 2°40.62 324.7 13.9 324 32.6
2003-09-03 07:28:49 51°26.97 2°40.59 325 13.9 324 32.2
2003-09-03 07:28:55 51°26.99 2°40.57 324.9 13.5 323 32.2
2003-09-03 07:28:59 51°27 2°40.56 324.7 12.7 323 32.1
2003-09-03 07:29:03 51°27.01 2°40.55 320.3 11.7 317 32.8
2003-09-03 07:29:09 51°27.02 2°40.52 315.9 10.7 312 33.9
2003-09-03 07:29:13 51°27.03 2°40.51 309.5 9.7 304 33.9
2003-09-03 07:29:19 51°27.03 2°40.49 303.1 9.2 301 33.7
2003-09-03 07:29:23 51°27.04 2°40.48 297.4 8.8 298 33.5
2003-09-03 07:29:29 51°27.04 2°40.46 291.6 8 291 32.9
2003-09-03 07:29:35 51°27.05 2°40.44 286.8 7.4 286 32.8
2003-09-03 07:29:39 51°27.05 2°40.42 282.1 6.9 282 32.7
2003-09-03 07:29:43 51°27.05 2°40.41 277.3 6.6 280 33.3
2003-09-03 07:29:49 51°27.05 2°40.4 273.3 6.2 275 33.7
2003-09-03 07:29:55 51°27.05 2°40.38 268.9 5.8 271 33.5
2003-09-03 07:29:59 51°27.05 2°40.37 265.3 5.5 267 33.5
2003-09-03 07:30:03 51°27.05 2°40.36 261.7 5.4 267 34.1
2003-09-03 07:30:09 51°27.05 2°40.35 259.8 5.2 264 34.2
2003-09-03 07:30:13 51°27.05 2°40.34 258.3 5 261 33.6
2003-09-03 07:30:19 51°27.05 2°40.33 256.8 4.9 261 33.6
2003-09-03 07:30:23 51°27.04 2°40.32 255.4 4.9 260 33.3
2003-09-03 07:30:29 51°27.04 2°40.31 254.6 4.7 257 32.4
2003-09-03 07:30:31 51°27.04 2°40.3 253.8 4.7 261 32.8
2003-09-03 07:30:39 51°27.04 2°40.29 253.5 4.5 256 32.9
2003-09-03 07:30:43 51°27.04 2°40.28 252.8 4.5 258 33.1
2003-09-03 07:30:49 51°27.04 2°40.27 252.1 4.4 256 32.9
2003-09-03 07:30:53 51°27.04 2°40.26 251.8 4.3 253 32.9
2003-09-03 07:30:59 51°27.03 2°40.25 250.3 4.3 254 33
2003-09-03 07:31:03 51°27.03 2°40.24 248.9 4.2 252 32.8
2003-09-03 07:31:09 51°27.03 2°40.23 247.9 4.1 251 33.2
2003-09-03 07:31:13 51°27.03 2°40.22 246.9 4.1 249 33.5
2003-09-03 07:31:19 51°27.03 2°40.21 246 4.2 249 33.3
2003-09-03 07:31:23 51°27.02 2°40.21 245.5 4.2 248 33.2
2003-09-03 07:31:29 51°27.02 2°40.2 244.9 4.3 248 33.2
2003-09-03 07:31:33 51°27.02 2°40.19 244 4.3 247 33.5
2003-09-03 07:31:39 51°27.02 2°40.18 243.5 4.3 245 33.7
2003-09-03 07:31:43 51°27.01 2°40.17 243.2 4.4 246 34
2003-09-03 07:31:49 51°27.01 2°40.16 243 4.5 245 34.3
2003-09-03 07:31:51 51°27.01 2°40.16 243 4.5 245 34.5
2003-09-03 07:31:59 51°27.01 2°40.14 243.7 4.5 243 34.4
2003-09-03 07:32:03 51°27 2°40.14 243.5 4.6 247 34.9
2003-09-03 07:32:09 51°27 2°40.12 244.1 4.6 246 34.9
2003-09-03 07:32:13 51°27 2°40.12 244.6 4.6 249 35
2003-09-03 07:32:19 51°27 2°40.11 245 4.6 245 35
2003-09-03 07:32:23 51°26.99 2°40.1 244.5 4.6 247 35.4
2003-09-03 07:32:29 51°26.99 2°40.09 244.5 4.6 245 35.6
2003-09-03 07:32:33 51°26.99 2°40.08 243.8 4.5 250 35.3
2003-09-03 07:32:39 51°26.99 2°40.07 244 4.3 243 35.9
2003-09-03 07:32:43 51°26.98 2°40.06 243.4 4.3 247 35.6
2003-09-03 07:32:47 51°26.98 2°40.06 242.9 3.9 244 35
2003-09-03 07:32:53 51°26.98 2°40.05 242.5 3.7 247 34.7
2003-09-03 07:32:59 51°26.98 2°40.04 242.4 3.4 244 33.8
2003-09-03 07:33:03 51°26.98 2°40.03 242 3.1 248 33.7
2003-09-03 07:33:09 51°26.97 2°40.03 241.8 2.1 246 33.4
2003-09-03 07:33:15 51°26.97 2°40.02 241.9 1.3 264 33.7
2003-09-03 07:33:19 51°26.97 2°40.02 243.6 0.6 272 33.7
2003-09-03 07:33:23 51°26.97 2°40.02 244.7 0.4 292 33.7
2003-09-03 07:33:29 51°26.97 2°40.02 245.2 0.4 288 33.6
2003-09-03 07:33:33 51°26.97 2°40.02 245.2 0.6 294 33.5
2003-09-03 07:33:39 51°26.97 2°40.02 245.3 0.5 290 33.6
2003-09-03 07:33:43 51°26.97 2°40.02 245.8 0.4 293 33.5
2003-09-03 07:33:49 51°26.98 2°40.02 246.2 0.6 299 33.4
2003-09-03 07:33:53 51°26.98 2°40.02 247 0.6 293 33.5
2003-09-03 07:33:59 51°26.98 2°40.02 248 0.7 300 33.6
2003-09-03 07:34:03 51°26.98 2°40.01 248.6 0.5 288 33.6
2003-09-03 07:34:09 51°26.98 2°40.01 249.4 0.6 293 33.6
2003-09-03 07:34:13 51°26.98 2°40.01 250 0.8 308 33.6
2003-09-03 07:34:19 51°26.98 2°40.01 251.2 0.5 289 33.7
2003-09-03 07:34:23 51°26.98 2°40.01 252.2 0.7 304 33.5
2003-09-03 07:34:29 51°26.98 2°40.01 252.9 0.7 303 33.6
2003-09-03 07:34:33 51°26.98 2°40.01 253.9 0.6 302 33.9
2003-09-03 07:34:39 51°26.98 2°40.01 254.8 0.6 308 34.1
2003-09-03 07:34:43 51°26.98 2°40.01 255.4 0.6 307 34.1
2003-09-03 07:34:49 51°26.98 2°40 255.8 0.7 317 34
2003-09-03 07:34:53 51°26.98 2°40 256.6 0.8 322 34.1
2003-09-03 07:34:59 51°26.98 2°40 257.6 0.6 310 34.1
2003-09-03 07:35:03 51°26.98 2°40 258 0.8 319 34.1
2003-09-03 07:35:09 51°26.98 2°40 258.6 0.7 320 34.3
2003-09-03 07:35:13 51°26.98 2°40 259.5 0.7 320 34.2
2003-09-03 07:35:19 51°26.99 2°40 260.2 0.8 325 34.3
2003-09-03 07:35:23 51°26.99 2°40 260.9 0.7 318 34.2
2003-09-03 07:35:29 51°26.99 2°40 261.5 0.9 329 34.2
2003-09-03 07:35:31 51°26.99 2°39.99 262.2 0.6 317 34.2
2003-09-03 07:35:39 51°26.99 2°39.99 262.9 0.9 327 34.1
2003-09-03 07:35:43 51°26.99 2°39.99 263.4 0.7 324 33.9
2003-09-03 07:35:49 51°26.99 2°39.99 264.1 0.8 327 33.9
2003-09-03 07:35:51 51°26.99 2°39.99 264.7 0.7 329 33.9
2003-09-03 07:35:59 51°26.99 2°39.99 265.5 0.8 329 33.9
2003-09-03 07:36:03 51°26.99 2°39.99 265.9 0.7 330 33.8
2003-09-03 07:36:09 51°26.99 2°39.99 266.4 0.8 328 33.9
2003-09-03 07:36:11 51°27 2°39.99 266.9 0.7 331 34
2003-09-03 07:36:19 51°27 2°39.99 267.3 0.9 335 34.1
2003-09-03 07:36:23 51°27 2°39.99 268.1 0.7 331 34
2003-09-03 07:36:29 51°27 2°39.98 268.2 0.9 336 34.1
2003-09-03 07:36:31 51°27 2°39.98 268.5 0.7 330 34.1
2003-09-03 07:36:39 51°27 2°39.98 269.1 1 341 34.1
2003-09-03 07:36:43 51°27 2°39.98 269.7 0.7 332 34.1
2003-09-03 07:36:49 51°27 2°39.98 270.1 1 342 34.1
2003-09-03 07:36:59 51°27 2°39.98 271.4 0.8 337 34.1
2003-09-03 07:37:05 51°27.01 2°39.98 272.1 0.9 337 34.1
2003-09-03 07:37:07 51°27.01 2°39.98 272.7 0.8 336 33.8
2003-09-03 07:37:15 51°27.01 2°39.98 272.9 1 344 33.8
2003-09-03 07:37:19 51°27.01 2°39.98 273.4 0.7 338 33.9
2003-09-03 07:37:25 51°27.01 2°39.98 274 0.9 349 33.9
2003-09-03 07:37:29 51°27.01 2°39.98 274.3 0.8 340 34
2003-09-03 07:37:35 51°27.01 2°39.98 275 1 342 34.1
2003-09-03 07:37:39 51°27.01 2°39.98 275.8 0.8 341 33.9
2003-09-03 07:37:45 51°27.02 2°39.98 276.5 0.9 344 33.7
2003-09-03 07:37:49 51°27.02 2°39.98 276.9 0.9 346 33.4
2003-09-03 07:37:55 51°27.02 2°39.97 277.4 0.9 345 33.5
2003-09-03 07:37:59 51°27.02 2°39.97 278.4 0.9 344 33.6
2003-09-03 07:38:05 51°27.02 2°39.97 278.9 0.9 348 33.8
2003-09-03 07:38:07 51°27.02 2°39.97 279.7 1 349 33.9
2003-09-03 07:38:15 51°27.02 2°39.97 280.6 0.9 354 34
2003-09-03 07:38:19 51°27.02 2°39.97 281 1.1 359 34.1
2003-09-03 07:38:25 51°27.03 2°39.97 281.6 1 356 34.2
2003-09-03 07:38:27 51°27.03 2°39.97 282.3 1 352 34.4
2003-09-03 07:38:35 51°27.03 2°39.97 283 0.9 349 34.4
2003-09-03 07:38:39 51°27.03 2°39.97 283.6 1 352 34.4
2003-09-03 07:38:45 51°27.03 2°39.97 284.1 1 355 34.2
2003-09-03 07:38:47 51°27.03 2°39.97 284.6 1 355 34.2
2003-09-03 07:38:55 51°27.03 2°39.97 285.4 1 355 34.4
2003-09-03 07:38:59 51°27.03 2°39.97 285.7 1 357 34.6
2003-09-03 07:39:05 51°27.04 2°39.97 286.6 1.2 347 34.7
2003-09-03 07:39:07 51°27.04 2°39.97 287.4 1.2 332 34.8
2003-09-03 07:39:15 51°27.04 2°39.97 288.1 1.5 332 34.9
2003-09-03 07:39:19 51°27.04 2°39.97 288.7 1.7 316 34.9
2003-09-03 07:39:25 51°27.04 2°39.96 290.2 2.3 315 35.1
2003-09-03 07:39:27 51°27.04 2°39.96 291.7 2.6 310 35.2
2003-09-03 07:39:35 51°27.05 2°39.95 294.3 3.1 314 35.3
2003-09-03 07:39:39 51°27.05 2°39.95 297.5 3.3 313 35.2
2003-09-03 07:39:45 51°27.06 2°39.94 302.2 3.8 320 35.2
2003-09-03 07:39:47 51°27.06 2°39.94 307.9 4 323 35
2003-09-03 07:39:55 51°27.07 2°39.93 313.8 4.3 331 34.7